createdAt,value
2017-12-20T00:00:04.767Z,6.71
2017-12-20T00:01:04.744Z,6.82
2017-12-20T00:02:04.724Z,6.89
2017-12-20T00:03:04.711Z,6.97
2017-12-20T00:04:04.703Z,7.00
2017-12-20T00:05:04.662Z,6.93
2017-12-20T00:06:04.642Z,6.92
2017-12-20T00:07:04.624Z,6.93
2017-12-20T00:08:04.604Z,6.93
2017-12-20T00:09:04.579Z,6.87
2017-12-20T00:10:04.559Z,6.92
2017-12-20T00:11:04.538Z,6.83
2017-12-20T00:12:04.519Z,6.82
2017-12-20T00:13:04.496Z,6.74
2017-12-20T00:14:04.476Z,6.78
2017-12-20T00:15:04.455Z,6.80
2017-12-20T00:16:04.450Z,6.75
2017-12-20T00:17:04.411Z,6.74
2017-12-20T00:18:04.416Z,6.77
2017-12-20T00:19:04.386Z,6.80
2017-12-20T00:20:04.352Z,6.75
2017-12-20T00:21:04.332Z,6.77
2017-12-20T00:22:04.311Z,6.62
2017-12-20T00:23:04.291Z,6.77
2017-12-20T00:24:04.281Z,6.83
2017-12-20T00:25:04.253Z,6.80
2017-12-20T00:26:04.231Z,6.80
2017-12-20T00:27:04.280Z,6.75
2017-12-20T00:28:04.184Z,6.86
2017-12-20T00:29:04.165Z,6.87
2017-12-20T00:30:04.144Z,6.83
2017-12-20T00:31:04.124Z,6.86
2017-12-20T00:32:04.104Z,6.80
2017-12-20T00:33:04.084Z,6.74
2017-12-20T00:34:04.063Z,6.77
2017-12-20T00:35:04.041Z,6.72
2017-12-20T00:36:04.021Z,6.78
2017-12-20T00:37:04.010Z,6.82
2017-12-20T00:38:03.979Z,6.77
2017-12-20T00:39:03.960Z,6.77
2017-12-20T00:40:03.940Z,6.70
2017-12-20T00:41:03.917Z,6.80
2017-12-20T00:42:03.898Z,6.70
2017-12-20T00:43:03.887Z,6.74
2017-12-20T00:44:03.858Z,6.64
2017-12-20T00:45:03.840Z,6.75
2017-12-20T00:46:03.886Z,6.71
2017-12-20T00:47:03.800Z,6.65
2017-12-20T00:48:03.776Z,6.75
2017-12-20T00:49:03.782Z,6.71
2017-12-20T00:50:03.732Z,6.77
2017-12-20T00:51:03.718Z,6.80
2017-12-20T00:52:03.699Z,6.89
2017-12-20T00:53:03.671Z,6.90
2017-12-20T00:54:03.662Z,6.97
2017-12-20T00:55:03.638Z,6.96
2017-12-20T00:56:03.607Z,7.07
2017-12-20T00:57:03.594Z,7.00
2017-12-20T00:58:03.567Z,7.00
2017-12-20T00:59:03.545Z,6.97
2017-12-20T01:00:03.527Z,6.93
2017-12-20T01:01:03.507Z,6.83
2017-12-20T01:02:03.487Z,6.77
2017-12-20T01:03:03.473Z,6.82
2017-12-20T01:04:03.444Z,6.78
2017-12-20T01:05:03.426Z,6.71
2017-12-20T01:06:03.405Z,6.75
2017-12-20T01:07:03.394Z,6.70
2017-12-20T01:08:03.368Z,6.72
2017-12-20T01:09:03.344Z,6.83
2017-12-20T01:10:03.319Z,6.85
2017-12-20T01:11:03.302Z,6.77
2017-12-20T01:12:03.279Z,6.77
2017-12-20T01:13:03.256Z,6.78
2017-12-20T01:14:03.236Z,6.92
2017-12-20T01:15:03.215Z,6.89
2017-12-20T01:16:03.207Z,7.10
2017-12-20T01:17:03.173Z,7.00
2017-12-20T01:18:03.152Z,6.92
2017-12-20T01:19:03.152Z,6.97
2017-12-20T01:20:03.116Z,6.96
2017-12-20T01:21:03.093Z,6.96
2017-12-20T01:22:03.133Z,6.95
2017-12-20T01:23:03.052Z,6.95
2017-12-20T01:24:03.032Z,6.89
2017-12-20T01:25:03.012Z,6.83
2017-12-20T01:26:02.992Z,6.86
2017-12-20T01:27:02.970Z,6.89
2017-12-20T01:28:02.947Z,6.86
2017-12-20T01:29:02.926Z,6.83
2017-12-20T01:30:02.920Z,6.75
2017-12-20T01:31:02.889Z,6.82
2017-12-20T01:32:02.866Z,6.74
2017-12-20T01:33:02.846Z,6.80
2017-12-20T01:34:02.832Z,6.85
2017-12-20T01:35:02.803Z,6.82
2017-12-20T01:36:02.788Z,6.82
2017-12-20T01:37:02.763Z,6.93
2017-12-20T01:38:02.894Z,6.90
2017-12-20T01:39:02.722Z,6.96
2017-12-20T01:40:02.702Z,6.95
2017-12-20T01:41:02.691Z,6.93
2017-12-20T01:42:02.661Z,6.95
2017-12-20T01:43:02.647Z,6.86
2017-12-20T01:44:02.620Z,6.89
2017-12-20T01:45:02.600Z,6.90
2017-12-20T01:46:02.579Z,6.89
2017-12-20T01:47:02.560Z,7.00
2017-12-20T01:48:02.542Z,6.89
2017-12-20T01:49:02.520Z,6.80
2017-12-20T01:50:02.508Z,6.95
2017-12-20T01:51:02.480Z,6.85
2017-12-20T01:52:02.457Z,6.90
2017-12-20T01:53:02.442Z,6.82
2017-12-20T01:54:02.417Z,6.78
2017-12-20T01:55:02.393Z,6.72
2017-12-20T01:56:02.373Z,6.64
2017-12-20T01:57:02.354Z,6.77
2017-12-20T01:58:02.332Z,6.74
2017-12-20T01:59:02.313Z,6.75
2017-12-20T02:00:02.298Z,6.74
2017-12-20T02:01:02.285Z,6.77
2017-12-20T02:02:02.259Z,6.75
2017-12-20T02:03:02.233Z,6.80
2017-12-20T02:04:02.211Z,6.82
2017-12-20T02:05:02.198Z,6.74
2017-12-20T02:06:02.166Z,6.77
2017-12-20T02:07:02.148Z,6.71
2017-12-20T02:08:02.262Z,6.78
2017-12-20T02:09:02.118Z,6.83
2017-12-20T02:10:02.094Z,6.80
2017-12-20T02:11:02.219Z,6.82
2017-12-20T02:12:02.056Z,6.80
2017-12-20T02:13:02.025Z,6.85
2017-12-20T02:14:02.024Z,6.83
2017-12-20T02:15:01.985Z,6.85
2017-12-20T02:16:01.965Z,6.89
2017-12-20T02:17:01.951Z,6.75
2017-12-20T02:18:01.925Z,6.82
2017-12-20T02:19:01.906Z,6.80
2017-12-20T02:20:01.882Z,6.77
2017-12-20T02:21:01.859Z,6.77
2017-12-20T02:22:01.839Z,6.80
2017-12-20T02:23:01.827Z,6.78
2017-12-20T02:24:01.798Z,6.77
2017-12-20T02:25:01.781Z,6.87
2017-12-20T02:26:01.767Z,6.82
2017-12-20T02:27:01.745Z,6.87
2017-12-20T02:28:01.718Z,6.87
2017-12-20T02:29:01.697Z,7.01
2017-12-20T02:30:01.825Z,6.95
2017-12-20T02:31:01.656Z,6.89
2017-12-20T02:32:01.637Z,6.83
2017-12-20T02:33:01.667Z,6.75
2017-12-20T02:34:01.595Z,6.72
2017-12-20T02:35:01.582Z,6.75
2017-12-20T02:36:01.609Z,6.80
2017-12-20T02:37:01.532Z,6.65
2017-12-20T02:38:01.511Z,6.67
2017-12-20T02:39:01.491Z,6.80
2017-12-20T02:40:01.474Z,6.80
2017-12-20T02:41:01.451Z,6.89
2017-12-20T02:42:01.439Z,6.86
2017-12-20T02:43:01.413Z,6.92
2017-12-20T02:44:01.392Z,6.87
2017-12-20T02:45:01.366Z,6.87
2017-12-20T02:46:01.353Z,6.92
2017-12-20T02:47:01.332Z,6.87
2017-12-20T02:48:01.308Z,6.77
2017-12-20T02:49:01.285Z,6.82
2017-12-20T02:50:01.267Z,6.71
2017-12-20T02:51:01.245Z,6.78
2017-12-20T02:52:01.222Z,6.87
2017-12-20T02:53:01.202Z,6.82
2017-12-20T02:54:01.182Z,6.87
2017-12-20T02:55:01.162Z,6.83
2017-12-20T02:56:01.143Z,6.82
2017-12-20T02:57:01.131Z,6.80
2017-12-20T02:58:01.100Z,6.75
2017-12-20T02:59:01.089Z,6.75
2017-12-20T03:00:01.059Z,6.80
2017-12-20T03:01:01.039Z,6.77
2017-12-20T03:02:01.027Z,6.64
2017-12-20T03:03:01.004Z,6.75
2017-12-20T03:04:00.980Z,6.77
2017-12-20T03:05:00.958Z,6.74
2017-12-20T03:06:00.959Z,6.64
2017-12-20T03:07:00.918Z,6.77
2017-12-20T03:08:00.960Z,6.62
2017-12-20T03:09:00.891Z,6.75
2017-12-20T03:10:00.854Z,6.78
2017-12-20T03:11:00.833Z,6.72
2017-12-20T03:12:00.872Z,6.65
2017-12-20T03:13:00.789Z,6.67
2017-12-20T03:14:00.770Z,6.68
2017-12-20T03:15:00.750Z,6.75
2017-12-20T03:16:00.729Z,6.74
2017-12-20T03:17:00.710Z,6.75
2017-12-20T03:18:00.691Z,6.74
2017-12-20T03:19:00.668Z,6.72
2017-12-20T03:20:00.648Z,6.78
2017-12-20T03:21:00.625Z,6.77
2017-12-20T03:22:00.603Z,6.85
2017-12-20T03:23:00.586Z,6.83
2017-12-20T03:24:00.565Z,6.87
2017-12-20T03:25:00.628Z,6.82
2017-12-20T03:26:00.525Z,6.92
2017-12-20T03:27:00.505Z,6.96
2017-12-20T03:28:00.519Z,6.90
2017-12-20T03:29:00.459Z,7.01
2017-12-20T03:30:00.440Z,6.89
2017-12-20T03:31:00.420Z,6.89
2017-12-20T03:32:00.410Z,6.82
2017-12-20T03:33:00.378Z,6.75
2017-12-20T03:34:00.355Z,6.90
2017-12-20T03:35:00.339Z,6.89
2017-12-20T03:36:00.342Z,6.78
2017-12-20T03:37:00.296Z,6.78
2017-12-20T03:38:00.275Z,6.87
2017-12-20T03:39:00.255Z,6.78
2017-12-20T03:40:00.236Z,6.75
2017-12-20T03:41:00.222Z,6.75
2017-12-20T03:42:00.194Z,6.74
2017-12-20T03:43:00.173Z,6.80
2017-12-20T03:44:00.152Z,6.85
2017-12-20T03:45:00.132Z,6.82
2017-12-20T03:46:00.113Z,6.80
2017-12-20T03:47:00.093Z,6.80
2017-12-20T03:48:00.071Z,6.78
2017-12-20T03:49:00.047Z,6.82
2017-12-20T03:50:00.027Z,6.75
2017-12-20T03:51:00.007Z,6.78
2017-12-20T03:51:59.987Z,6.77
2017-12-20T03:52:59.966Z,6.75
2017-12-20T03:53:59.944Z,6.75
2017-12-20T03:54:59.983Z,6.80
2017-12-20T03:55:59.901Z,6.78
2017-12-20T03:56:59.895Z,6.72
2017-12-20T03:57:59.866Z,6.80
2017-12-20T03:58:59.843Z,6.75
2017-12-20T03:59:59.825Z,6.77
2017-12-20T04:00:59.802Z,6.75
2017-12-20T04:01:59.782Z,6.74
2017-12-20T04:02:59.767Z,6.85
2017-12-20T04:03:59.740Z,6.74
2017-12-20T04:04:59.733Z,6.72
2017-12-20T04:05:59.698Z,6.74
2017-12-20T04:06:59.681Z,6.78
2017-12-20T04:07:59.660Z,6.75
2017-12-20T04:08:59.637Z,6.85
2017-12-20T04:09:59.618Z,6.77
2017-12-20T04:10:59.599Z,6.72
2017-12-20T04:11:59.572Z,6.80
2017-12-20T04:12:59.552Z,6.85
2017-12-20T04:13:59.540Z,6.83
2017-12-20T04:14:59.517Z,6.82
2017-12-20T04:15:59.493Z,6.89
2017-12-20T04:16:59.476Z,6.75
2017-12-20T04:17:59.454Z,6.82
2017-12-20T04:18:59.429Z,6.87
2017-12-20T04:19:59.413Z,6.97
2017-12-20T04:20:59.443Z,6.95
2017-12-20T04:21:59.367Z,6.97
2017-12-20T04:22:59.355Z,6.95
2017-12-20T04:23:59.327Z,6.93
2017-12-20T04:24:59.332Z,6.80
2017-12-20T04:25:59.287Z,6.89
2017-12-20T04:26:59.316Z,6.85
2017-12-20T04:27:59.249Z,6.89
2017-12-20T04:28:59.227Z,6.87
2017-12-20T04:29:59.205Z,6.86
2017-12-20T04:30:59.189Z,6.87
2017-12-20T04:31:59.165Z,7.00
2017-12-20T04:32:59.139Z,6.92
2017-12-20T04:33:59.120Z,6.95
2017-12-20T04:34:59.100Z,6.92
2017-12-20T04:35:59.080Z,6.95
2017-12-20T04:36:59.058Z,6.87
2017-12-20T04:37:59.038Z,6.97
2017-12-20T04:38:59.019Z,7.00
2017-12-20T04:39:58.999Z,6.93
2017-12-20T04:40:58.978Z,6.86
2017-12-20T04:41:58.954Z,6.97
2017-12-20T04:42:58.934Z,6.89
2017-12-20T04:43:58.913Z,6.89
2017-12-20T04:44:58.894Z,6.95
2017-12-20T04:45:58.876Z,6.96
2017-12-20T04:46:58.864Z,6.96
2017-12-20T04:47:58.833Z,6.96
2017-12-20T04:48:58.813Z,6.93
2017-12-20T04:49:58.918Z,6.95
2017-12-20T04:50:58.773Z,6.96
2017-12-20T04:51:58.752Z,6.90
2017-12-20T04:52:58.733Z,7.00
2017-12-20T04:53:58.707Z,7.04
2017-12-20T04:54:58.687Z,6.92
2017-12-20T04:55:58.667Z,6.95
2017-12-20T04:56:58.645Z,6.97
2017-12-20T04:57:58.628Z,6.89
2017-12-20T04:58:58.603Z,6.85
2017-12-20T04:59:58.584Z,6.83
2017-12-20T05:00:58.564Z,6.80
2017-12-20T05:01:58.547Z,6.77
2017-12-20T05:02:58.529Z,6.75
2017-12-20T05:03:58.500Z,6.87
2017-12-20T05:04:58.482Z,6.92
2017-12-20T05:05:58.468Z,6.87
2017-12-20T05:06:58.439Z,6.87
2017-12-20T05:07:58.420Z,6.78
2017-12-20T05:08:58.466Z,6.82
2017-12-20T05:09:58.380Z,6.77
2017-12-20T05:10:58.360Z,6.80
2017-12-20T05:11:58.334Z,6.80
2017-12-20T05:12:58.313Z,6.75
2017-12-20T05:13:58.294Z,6.77
2017-12-20T05:14:58.283Z,6.71
2017-12-20T05:15:58.257Z,6.68
2017-12-20T05:16:58.244Z,6.59
2017-12-20T05:17:58.211Z,6.70
2017-12-20T05:18:58.191Z,6.62
2017-12-20T05:19:58.243Z,6.72
2017-12-20T05:20:58.148Z,6.64
2017-12-20T05:21:58.131Z,6.72
2017-12-20T05:22:58.112Z,6.74
2017-12-20T05:23:58.089Z,6.65
2017-12-20T05:24:58.067Z,6.60
2017-12-20T05:25:58.047Z,6.80
2017-12-20T05:26:58.027Z,6.80
2017-12-20T05:27:58.011Z,6.64
2017-12-20T05:28:57.983Z,6.77
2017-12-20T05:29:57.963Z,6.72
2017-12-20T05:30:57.942Z,6.82
2017-12-20T05:31:57.930Z,6.82
2017-12-20T05:32:57.899Z,6.72
2017-12-20T05:33:57.880Z,6.59
2017-12-20T05:34:57.861Z,6.75
2017-12-20T05:35:57.855Z,6.67
2017-12-20T05:36:57.816Z,6.62
2017-12-20T05:37:57.797Z,6.74
2017-12-20T05:38:57.794Z,6.71
2017-12-20T05:39:57.755Z,6.74
2017-12-20T05:40:57.732Z,6.75
2017-12-20T05:41:57.772Z,6.80
2017-12-20T05:42:57.693Z,6.65
2017-12-20T05:43:57.677Z,6.77
2017-12-20T05:44:57.648Z,6.75
2017-12-20T05:45:57.627Z,6.71
2017-12-20T05:46:57.607Z,6.62
2017-12-20T05:47:57.585Z,6.80
2017-12-20T05:48:57.573Z,6.77
2017-12-20T05:49:57.544Z,6.77
2017-12-20T05:50:57.523Z,6.77
2017-12-20T05:51:57.511Z,6.72
2017-12-20T05:52:57.482Z,6.72
2017-12-20T05:53:57.458Z,6.72
2017-12-20T05:54:57.439Z,6.72
2017-12-20T05:55:57.425Z,6.77
2017-12-20T05:56:57.395Z,6.78
2017-12-20T05:57:57.374Z,6.80
2017-12-20T05:58:57.355Z,6.85
2017-12-20T05:59:57.332Z,6.86
2017-12-20T06:00:57.321Z,6.82
2017-12-20T06:01:57.289Z,6.75
2017-12-20T06:02:57.271Z,6.77
2017-12-20T06:03:57.248Z,6.77
2017-12-20T06:04:57.228Z,6.78
2017-12-20T06:05:57.207Z,6.75
2017-12-20T06:06:57.184Z,6.77
2017-12-20T06:07:57.164Z,6.77
2017-12-20T06:08:57.143Z,6.70
2017-12-20T06:09:57.125Z,6.77
2017-12-20T06:10:57.101Z,6.74
2017-12-20T06:11:57.193Z,6.74
2017-12-20T06:12:57.061Z,6.74
2017-12-20T06:13:57.036Z,6.65
2017-12-20T06:14:57.041Z,6.74
2017-12-20T06:15:56.995Z,6.75
2017-12-20T06:16:56.975Z,6.62
2017-12-20T06:17:56.960Z,6.70
2017-12-20T06:18:56.940Z,6.72
2017-12-20T06:19:56.912Z,6.71
2017-12-20T06:20:56.890Z,6.75
2017-12-20T06:21:56.877Z,6.75
2017-12-20T06:22:56.850Z,6.74
2017-12-20T06:23:56.839Z,6.72
2017-12-20T06:24:56.810Z,6.75
2017-12-20T06:25:56.788Z,6.80
2017-12-20T06:26:56.764Z,6.75
2017-12-20T06:27:56.744Z,6.83
2017-12-20T06:28:56.724Z,6.77
2017-12-20T06:29:56.703Z,6.80
2017-12-20T06:30:56.683Z,6.86
2017-12-20T06:31:56.660Z,6.85
2017-12-20T06:32:56.642Z,6.87
2017-12-20T06:33:56.648Z,6.89
2017-12-20T06:34:56.597Z,6.93
2017-12-20T06:35:56.577Z,6.93
2017-12-20T06:36:56.558Z,6.96
2017-12-20T06:37:56.539Z,7.01
2017-12-20T06:38:56.513Z,7.01
2017-12-20T06:39:56.493Z,6.93
2017-12-20T06:40:56.469Z,6.93
2017-12-20T06:41:56.449Z,6.96
2017-12-20T06:42:56.438Z,6.95
2017-12-20T06:43:56.410Z,6.96
2017-12-20T06:44:56.393Z,6.95
2017-12-20T06:45:56.375Z,6.90
2017-12-20T06:46:56.349Z,7.03
2017-12-20T06:47:56.326Z,7.03
2017-12-20T06:48:56.306Z,7.03
2017-12-20T06:49:56.286Z,7.01
2017-12-20T06:50:56.270Z,7.14
2017-12-20T06:51:56.266Z,7.07
2017-12-20T06:52:56.222Z,7.13
2017-12-20T06:53:56.200Z,7.14
2017-12-20T06:54:56.179Z,7.11
2017-12-20T06:55:56.157Z,7.07
2017-12-20T06:56:56.138Z,7.04
2017-12-20T06:57:56.123Z,7.04
2017-12-20T06:58:56.107Z,7.00
2017-12-20T06:59:56.075Z,7.04
2017-12-20T07:00:56.055Z,7.04
2017-12-20T07:01:56.033Z,7.13
2017-12-20T07:02:56.025Z,7.05
2017-12-20T07:03:56.033Z,7.14
2017-12-20T07:04:55.974Z,7.11
2017-12-20T07:05:55.953Z,7.13
2017-12-20T07:06:55.939Z,7.18
2017-12-20T07:07:55.913Z,7.19
2017-12-20T07:08:55.897Z,7.19
2017-12-20T07:09:55.868Z,7.18
2017-12-20T07:10:55.848Z,7.19
2017-12-20T07:11:55.825Z,7.14
2017-12-20T07:12:55.804Z,7.21
2017-12-20T07:13:55.785Z,7.19
2017-12-20T07:14:55.765Z,7.19
2017-12-20T07:15:55.747Z,7.15
2017-12-20T07:16:55.720Z,7.15
2017-12-20T07:17:55.702Z,7.23
2017-12-20T07:18:55.707Z,7.21
2017-12-20T07:19:55.660Z,7.28
2017-12-20T07:20:55.641Z,7.23
2017-12-20T07:21:55.621Z,7.23
2017-12-20T07:22:55.601Z,7.26
2017-12-20T07:23:55.581Z,7.23
2017-12-20T07:24:55.557Z,7.22
2017-12-20T07:25:55.645Z,7.19
2017-12-20T07:26:55.528Z,7.26
2017-12-20T07:27:55.496Z,7.19
2017-12-20T07:28:55.492Z,7.15
2017-12-20T07:29:55.457Z,7.15
2017-12-20T07:30:55.436Z,7.21
2017-12-20T07:31:55.422Z,7.15
2017-12-20T07:32:55.393Z,7.21
2017-12-20T07:33:55.372Z,7.19
2017-12-20T07:34:55.351Z,7.19
2017-12-20T07:35:55.332Z,7.26
2017-12-20T07:36:55.330Z,7.26
2017-12-20T07:37:55.288Z,7.25
2017-12-20T07:38:55.272Z,7.26
2017-12-20T07:39:55.254Z,7.23
2017-12-20T07:40:55.227Z,7.22
2017-12-20T07:41:55.209Z,7.14
2017-12-20T07:42:55.195Z,7.28
2017-12-20T07:43:55.169Z,7.21
2017-12-20T07:44:55.145Z,7.22
2017-12-20T07:45:55.136Z,7.23
2017-12-20T07:46:55.129Z,7.08
2017-12-20T07:47:55.082Z,7.26
2017-12-20T07:48:55.063Z,7.18
2017-12-20T07:49:55.042Z,7.26
2017-12-20T07:50:55.028Z,7.22
2017-12-20T07:51:55.003Z,7.21
2017-12-20T07:52:54.989Z,7.18
2017-12-20T07:53:54.959Z,7.15
2017-12-20T07:54:54.939Z,7.18
2017-12-20T07:55:55.043Z,7.25
2017-12-20T07:56:54.906Z,7.25
2017-12-20T07:57:54.882Z,7.26
2017-12-20T07:58:54.862Z,7.21
2017-12-20T07:59:54.841Z,7.28
2017-12-20T08:00:54.816Z,7.14
2017-12-20T08:01:54.803Z,7.23
2017-12-20T08:02:54.795Z,7.13
2017-12-20T08:03:54.766Z,7.25
2017-12-20T08:04:54.735Z,7.22
2017-12-20T08:05:54.743Z,7.10
2017-12-20T08:06:54.702Z,7.15
2017-12-20T08:07:54.678Z,7.14
2017-12-20T08:08:54.658Z,7.21
2017-12-20T08:09:54.635Z,7.10
2017-12-20T08:10:54.618Z,7.10
2017-12-20T08:11:54.594Z,7.19
2017-12-20T08:12:54.573Z,7.18
2017-12-20T08:13:54.549Z,7.21
2017-12-20T08:14:54.541Z,7.32
2017-12-20T08:15:54.535Z,7.47
2017-12-20T08:16:54.489Z,7.28
2017-12-20T08:17:54.606Z,7.39
2017-12-20T08:18:54.449Z,7.44
2017-12-20T08:19:54.427Z,7.61
2017-12-20T08:20:54.486Z,7.48
2017-12-20T08:21:54.395Z,7.46
2017-12-20T08:22:54.366Z,7.40
2017-12-20T08:23:54.354Z,7.46
2017-12-20T08:24:54.329Z,7.39
2017-12-20T08:25:54.305Z,7.43
2017-12-20T08:26:54.288Z,7.55
2017-12-20T08:27:54.265Z,7.48
2017-12-20T08:28:54.264Z,7.58
2017-12-20T08:29:54.224Z,7.58
2017-12-20T08:30:54.206Z,7.47
2017-12-20T08:31:54.189Z,7.56
2017-12-20T08:32:54.163Z,7.61
2017-12-20T08:33:54.153Z,7.51
2017-12-20T08:34:54.126Z,7.43
2017-12-20T08:35:54.108Z,7.47
2017-12-20T08:36:54.081Z,7.46
2017-12-20T08:37:54.063Z,7.66
2017-12-20T08:38:54.044Z,7.64
2017-12-20T08:39:54.024Z,7.66
2017-12-20T08:40:54.000Z,7.67
2017-12-20T08:41:53.989Z,7.48
2017-12-20T08:42:53.963Z,7.48
2017-12-20T08:43:53.945Z,7.59
2017-12-20T08:44:53.931Z,7.59
2017-12-20T08:45:53.901Z,7.62
2017-12-20T08:46:53.880Z,7.62
2017-12-20T08:47:53.965Z,7.74
2017-12-20T08:48:53.840Z,7.72
2017-12-20T08:49:53.821Z,7.70
2017-12-20T08:50:53.805Z,7.61
2017-12-20T08:51:53.782Z,7.58
2017-12-20T08:52:53.759Z,7.51
2017-12-20T08:53:53.741Z,7.58
2017-12-20T08:54:53.720Z,7.56
2017-12-20T08:55:53.698Z,7.55
2017-12-20T08:56:53.679Z,7.46
2017-12-20T08:57:53.658Z,7.50
2017-12-20T08:58:53.643Z,7.47
2017-12-20T08:59:53.616Z,7.46
2017-12-20T09:00:53.598Z,7.56
2017-12-20T09:01:53.576Z,7.67
2017-12-20T09:02:53.556Z,7.80
2017-12-20T09:03:53.546Z,7.80
2017-12-20T09:04:53.516Z,7.75
2017-12-20T09:05:53.497Z,7.84
2017-12-20T09:06:53.538Z,7.72
2017-12-20T09:07:53.459Z,7.75
2017-12-20T09:08:53.437Z,7.77
2017-12-20T09:09:53.517Z,7.75
2017-12-20T09:10:53.398Z,7.83
2017-12-20T09:11:53.379Z,7.70
2017-12-20T09:12:53.370Z,7.66
2017-12-20T09:13:53.335Z,7.61
2017-12-20T09:14:53.318Z,7.61
2017-12-20T09:15:53.299Z,7.59
2017-12-20T09:16:53.278Z,7.59
2017-12-20T09:17:53.366Z,7.58
2017-12-20T09:18:53.238Z,7.48
2017-12-20T09:19:53.218Z,7.56
2017-12-20T09:20:53.267Z,7.48
2017-12-20T09:21:53.206Z,7.51
2017-12-20T09:22:53.158Z,7.53
2017-12-20T09:23:53.152Z,7.59
2017-12-20T09:24:53.121Z,7.58
2017-12-20T09:25:53.099Z,7.69
2017-12-20T09:26:53.080Z,7.58
2017-12-20T09:27:53.060Z,7.66
2017-12-20T09:28:53.047Z,7.72
2017-12-20T09:29:53.084Z,7.87
2017-12-20T09:30:53.011Z,7.93
2017-12-20T09:31:52.989Z,7.75
2017-12-20T09:32:52.960Z,7.72
2017-12-20T09:33:52.939Z,7.78
2017-12-20T09:34:52.924Z,7.66
2017-12-20T09:35:52.914Z,7.77
2017-12-20T09:36:52.886Z,7.72
2017-12-20T09:37:52.867Z,7.75
2017-12-20T09:38:52.843Z,7.74
2017-12-20T09:39:52.835Z,7.67
2017-12-20T09:40:52.798Z,7.62
2017-12-20T09:41:52.798Z,7.59
2017-12-20T09:42:52.770Z,7.64
2017-12-20T09:43:52.742Z,7.64
2017-12-20T09:44:52.735Z,7.55
2017-12-20T09:45:52.703Z,7.58
2017-12-20T09:46:52.682Z,7.55
2017-12-20T09:47:52.664Z,7.51
2017-12-20T09:48:52.652Z,7.55
2017-12-20T09:49:52.624Z,7.50
2017-12-20T09:50:52.607Z,7.55
2017-12-20T09:51:52.593Z,7.43
2017-12-20T09:52:52.563Z,7.48
2017-12-20T09:53:52.543Z,7.53
2017-12-20T09:54:52.538Z,7.61
2017-12-20T09:55:52.510Z,7.64
2017-12-20T09:56:52.482Z,7.75
2017-12-20T09:57:52.462Z,7.80
2017-12-20T09:58:52.447Z,7.75
2017-12-20T09:59:52.424Z,7.72
2017-12-20T10:00:52.404Z,7.67
2017-12-20T10:01:52.485Z,7.74
2017-12-20T10:02:52.371Z,7.66
2017-12-20T10:03:52.344Z,7.78
2017-12-20T10:04:52.327Z,7.93
2017-12-20T10:05:52.309Z,7.83
2017-12-20T10:06:52.288Z,7.83
2017-12-20T10:07:52.273Z,7.80
2017-12-20T10:08:52.260Z,7.90
2017-12-20T10:09:52.280Z,7.87
2017-12-20T10:10:52.208Z,7.91
2017-12-20T10:11:52.194Z,7.90
2017-12-20T10:12:52.185Z,8.01
2017-12-20T10:13:52.148Z,7.90
2017-12-20T10:14:52.138Z,7.90
2017-12-20T10:15:52.119Z,7.90
2017-12-20T10:16:52.090Z,7.98
2017-12-20T10:17:52.069Z,7.95
2017-12-20T10:18:52.049Z,7.93
2017-12-20T10:19:52.032Z,7.90
2017-12-20T10:20:52.013Z,7.95
2017-12-20T10:21:51.995Z,7.87
2017-12-20T10:22:51.973Z,7.83
2017-12-20T10:23:51.953Z,7.87
2017-12-20T10:24:51.931Z,7.91
2017-12-20T10:25:51.917Z,7.93
2017-12-20T10:26:51.902Z,7.88
2017-12-20T10:27:51.875Z,7.90
2017-12-20T10:28:51.856Z,7.96
2017-12-20T10:29:51.848Z,7.98
2017-12-20T10:30:51.825Z,7.83
2017-12-20T10:31:51.829Z,7.88
2017-12-20T10:32:51.779Z,8.06
2017-12-20T10:33:51.760Z,7.96
2017-12-20T10:34:51.764Z,7.87
2017-12-20T10:35:51.722Z,7.90
2017-12-20T10:36:51.707Z,7.87
2017-12-20T10:37:51.687Z,7.93
2017-12-20T10:38:51.659Z,7.91
2017-12-20T10:39:51.651Z,7.80
2017-12-20T10:40:51.624Z,7.87
2017-12-20T10:41:51.603Z,7.81
2017-12-20T10:42:51.581Z,7.80
2017-12-20T10:43:51.564Z,7.80
2017-12-20T10:44:51.544Z,7.87
2017-12-20T10:45:51.526Z,7.85
2017-12-20T10:46:51.513Z,7.75
2017-12-20T10:47:51.485Z,7.81
2017-12-20T10:48:51.466Z,7.85
2017-12-20T10:49:51.445Z,7.93
2017-12-20T10:50:51.462Z,7.91
2017-12-20T10:51:51.409Z,7.98
2017-12-20T10:52:51.394Z,7.95
2017-12-20T10:53:51.366Z,7.93
2017-12-20T10:54:51.353Z,7.90
2017-12-20T10:55:51.331Z,7.90
2017-12-20T10:56:51.311Z,7.93
2017-12-20T10:57:51.302Z,7.93
2017-12-20T10:58:51.270Z,7.93
2017-12-20T10:59:51.252Z,7.87
2017-12-20T11:00:51.230Z,7.96
2017-12-20T11:01:51.236Z,7.80
2017-12-20T11:02:51.194Z,7.83
2017-12-20T11:03:51.186Z,7.90
2017-12-20T11:04:51.168Z,7.91
2017-12-20T11:05:51.135Z,7.91
2017-12-20T11:06:51.114Z,7.95
2017-12-20T11:07:51.104Z,7.88
2017-12-20T11:08:51.075Z,7.91
2017-12-20T11:09:51.058Z,8.03
2017-12-20T11:10:51.041Z,8.17
2017-12-20T11:11:51.023Z,8.18
2017-12-20T11:12:50.998Z,8.20
2017-12-20T11:13:50.989Z,8.23
2017-12-20T11:14:50.960Z,8.20
2017-12-20T11:15:50.941Z,8.23
2017-12-20T11:16:50.928Z,8.18
2017-12-20T11:17:50.903Z,8.31
2017-12-20T11:18:50.888Z,8.32
2017-12-20T11:19:50.870Z,8.31
2017-12-20T11:20:50.877Z,8.34
2017-12-20T11:21:50.828Z,8.38
2017-12-20T11:22:50.809Z,8.36
2017-12-20T11:23:50.806Z,8.32
2017-12-20T11:24:50.767Z,8.34
2017-12-20T11:25:50.753Z,8.49
2017-12-20T11:26:50.736Z,8.45
2017-12-20T11:27:50.720Z,8.50
2017-12-20T11:28:50.693Z,8.50
2017-12-20T11:29:50.692Z,8.59
2017-12-20T11:30:50.664Z,8.68
2017-12-20T11:31:50.641Z,8.63
2017-12-20T11:32:50.615Z,8.64
2017-12-20T11:33:50.606Z,8.71
2017-12-20T11:34:50.579Z,8.72
2017-12-20T11:35:50.571Z,8.61
2017-12-20T11:36:50.540Z,8.69
2017-12-20T11:37:50.524Z,8.61
2017-12-20T11:38:50.506Z,8.77
2017-12-20T11:39:50.486Z,8.84
2017-12-20T11:40:50.468Z,8.72
2017-12-20T11:41:50.448Z,8.77
2017-12-20T11:42:50.428Z,8.75
2017-12-20T11:43:50.419Z,8.84
2017-12-20T11:44:50.395Z,8.71
2017-12-20T11:45:50.374Z,8.75
2017-12-20T11:46:50.360Z,8.72
2017-12-20T11:47:50.337Z,8.63
2017-12-20T11:48:50.318Z,8.64
2017-12-20T11:49:50.298Z,8.64
2017-12-20T11:50:50.339Z,8.72
2017-12-20T11:51:50.263Z,8.72
2017-12-20T11:52:50.252Z,8.77
2017-12-20T11:53:50.242Z,8.68
2017-12-20T11:54:50.207Z,8.63
2017-12-20T11:55:50.211Z,8.52
2017-12-20T11:56:50.178Z,8.46
2017-12-20T11:57:50.161Z,8.45
2017-12-20T11:58:50.131Z,8.36
2017-12-20T11:59:50.114Z,8.38
2017-12-20T12:00:50.092Z,8.36
2017-12-20T12:01:50.075Z,8.42
2017-12-20T12:02:50.065Z,8.44
2017-12-20T12:03:50.037Z,8.45
2017-12-20T12:04:50.022Z,8.36
2017-12-20T12:05:50.006Z,8.34
2017-12-20T12:06:49.984Z,8.32
2017-12-20T12:07:49.965Z,8.28
2017-12-20T12:08:49.951Z,8.27
2017-12-20T12:09:49.932Z,8.34
2017-12-20T12:10:49.911Z,8.20
2017-12-20T12:11:49.891Z,8.27
2017-12-20T12:12:49.937Z,8.34
2017-12-20T12:13:49.855Z,8.39
2017-12-20T12:14:49.833Z,8.44
2017-12-20T12:15:49.825Z,8.39
2017-12-20T12:16:49.792Z,8.45
2017-12-20T12:17:49.774Z,8.39
2017-12-20T12:18:49.768Z,8.53
2017-12-20T12:19:49.739Z,8.54
2017-12-20T12:20:49.720Z,8.52
2017-12-20T12:21:49.699Z,8.41
2017-12-20T12:22:49.681Z,8.44
2017-12-20T12:23:49.664Z,8.49
2017-12-20T12:24:49.661Z,8.31
2017-12-20T12:25:49.629Z,8.27
2017-12-20T12:26:49.621Z,8.28
2017-12-20T12:27:49.596Z,8.31
2017-12-20T12:28:49.569Z,8.21
2017-12-20T12:29:49.554Z,8.32
2017-12-20T12:30:49.532Z,8.23
2017-12-20T12:31:49.513Z,8.32
2017-12-20T12:32:49.494Z,8.45
2017-12-20T12:33:49.484Z,8.49
2017-12-20T12:34:49.456Z,8.54
2017-12-20T12:35:49.453Z,8.42
2017-12-20T12:36:49.423Z,8.46
2017-12-20T12:37:49.399Z,8.49
2017-12-20T12:38:49.393Z,8.56
2017-12-20T12:39:49.369Z,8.46
2017-12-20T12:40:49.358Z,8.41
2017-12-20T12:41:49.323Z,8.32
2017-12-20T12:42:49.364Z,8.18
2017-12-20T12:43:49.289Z,8.20
2017-12-20T12:44:49.281Z,8.24
2017-12-20T12:45:49.300Z,8.21
2017-12-20T12:46:49.230Z,8.26
2017-12-20T12:47:49.209Z,8.26
2017-12-20T12:48:49.191Z,8.24
2017-12-20T12:49:49.170Z,8.31
2017-12-20T12:50:49.155Z,8.44
2017-12-20T12:51:49.136Z,8.44
2017-12-20T12:52:49.114Z,8.49
2017-12-20T12:53:49.096Z,8.53
2017-12-20T12:54:49.092Z,8.42
2017-12-20T12:55:49.067Z,8.49
2017-12-20T12:56:49.046Z,8.45
2017-12-20T12:57:49.020Z,8.36
2017-12-20T12:58:48.999Z,8.36
2017-12-20T12:59:48.984Z,8.46
2017-12-20T13:00:48.961Z,8.32
2017-12-20T13:01:49.034Z,8.34
2017-12-20T13:02:48.925Z,8.31
2017-12-20T13:03:48.914Z,8.21
2017-12-20T13:04:48.903Z,8.21
2017-12-20T13:05:48.874Z,8.34
2017-12-20T13:06:48.849Z,8.36
2017-12-20T13:07:48.831Z,8.44
2017-12-20T13:08:48.816Z,8.42
2017-12-20T13:09:48.798Z,8.50
2017-12-20T13:10:48.774Z,8.74
2017-12-20T13:11:48.752Z,8.75
2017-12-20T13:12:48.744Z,8.78
2017-12-20T13:13:48.714Z,8.71
2017-12-20T13:14:48.696Z,8.82
2017-12-20T13:15:48.677Z,8.96
2017-12-20T13:16:48.661Z,8.92
2017-12-20T13:17:48.637Z,9.13